createdAt,value
2019-03-17T00:02:20.823Z,42.37
2019-03-17T00:05:10.774Z,43.17
2019-03-17T00:08:00.643Z,45.57
2019-03-17T00:10:52.592Z,48.90
2019-03-17T00:13:33.633Z,44.77
2019-03-17T00:16:04.211Z,45.60
2019-03-17T00:18:54.078Z,39.20
2019-03-17T00:21:43.935Z,48.20
2019-03-17T00:24:33.780Z,41.30
2019-03-17T00:27:23.612Z,43.70
2019-03-17T00:30:13.474Z,54.33
2019-03-17T00:33:03.377Z,60.07
2019-03-17T00:35:53.216Z,61.43
2019-03-17T00:38:43.101Z,49.30
2019-03-17T00:41:32.959Z,56.27
2019-03-17T00:44:22.855Z,53.77
2019-03-17T00:46:53.409Z,59.60
2019-03-17T00:49:43.350Z,56.73
2019-03-17T00:52:33.226Z,49.20
2019-03-17T00:55:23.092Z,51.37
2019-03-17T00:57:55.211Z,56.00
2019-03-17T01:00:45.281Z,49.80
2019-03-17T01:03:35.163Z,51.77
2019-03-17T01:06:25.056Z,45.00
2019-03-17T01:09:14.904Z,44.00
2019-03-17T01:18:11.099Z,41.83
2019-03-17T01:21:00.961Z,38.47
2019-03-17T01:23:50.861Z,41.03
2019-03-17T01:26:40.734Z,45.47
2019-03-17T01:29:30.626Z,43.33
2019-03-17T01:32:20.653Z,41.60
2019-03-17T01:34:51.145Z,37.90
2019-03-17T01:37:59.967Z,41.23
2019-03-17T01:40:49.866Z,40.70
2019-03-17T01:43:20.319Z,39.10
2019-03-17T01:46:10.172Z,43.47
2019-03-17T01:49:19.009Z,44.93
2019-03-17T01:52:20.621Z,47.13
2019-03-17T01:55:03.472Z,43.40
2019-03-17T01:57:34.368Z,42.37
2019-03-17T02:00:43.189Z,47.10
2019-03-17T02:03:44.273Z,46.60
2019-03-17T02:06:29.148Z,41.13
2019-03-17T02:09:11.604Z,46.90
2019-03-17T02:11:54.958Z,46.40
2019-03-17T02:14:26.343Z,45.90
2019-03-17T02:17:35.159Z,48.97
2019-03-17T02:20:25.032Z,45.40
2019-03-17T02:23:14.839Z,50.00
2019-03-17T02:26:04.722Z,39.97
2019-03-17T02:28:54.604Z,44.60
2019-03-17T02:31:44.539Z,43.37
2019-03-17T02:34:34.423Z,33.10
2019-03-17T02:37:24.351Z,34.83
2019-03-17T02:40:14.230Z,36.50
2019-03-17T02:43:16.028Z,32.07
2019-03-17T02:45:48.338Z,33.57
2019-03-17T02:48:38.644Z,33.43
2019-03-17T02:51:40.391Z,36.27
2019-03-17T02:54:22.983Z,33.43
2019-03-17T02:57:04.953Z,39.00
2019-03-17T02:59:48.127Z,34.80
2019-03-17T03:02:32.229Z,31.07
2019-03-17T03:05:06.084Z,34.33
2019-03-17T03:07:55.897Z,32.90
2019-03-17T03:10:45.765Z,26.17
2019-03-17T03:13:35.654Z,26.63
2019-03-17T03:16:25.503Z,26.40
2019-03-17T03:18:55.955Z,29.07
2019-03-17T03:21:45.902Z,28.17
2019-03-17T03:24:54.710Z,31.53
2019-03-17T03:27:44.565Z,30.63
2019-03-17T03:30:34.393Z,32.50
2019-03-17T03:33:24.306Z,28.40
2019-03-17T03:36:14.125Z,26.03
2019-03-17T03:38:44.604Z,27.77
2019-03-17T03:41:53.466Z,22.67
2019-03-17T03:44:23.922Z,26.77
2019-03-17T03:47:13.741Z,25.00
2019-03-17T03:50:03.689Z,29.90
2019-03-17T03:52:53.529Z,22.67
2019-03-17T03:55:43.423Z,26.10
2019-03-17T03:58:33.245Z,26.87
2019-03-17T04:01:23.120Z,25.10
2019-03-17T04:03:53.639Z,27.97
2019-03-17T04:06:43.577Z,28.33
2019-03-17T04:09:33.403Z,26.83
2019-03-17T04:12:23.310Z,26.00
2019-03-17T04:14:54.402Z,26.20
2019-03-17T04:17:44.294Z,23.80
2019-03-17T04:20:14.923Z,18.00
2019-03-17T04:23:04.754Z,15.03
2019-03-17T04:25:54.615Z,13.23
2019-03-17T04:28:44.508Z,13.87
2019-03-17T04:31:14.974Z,13.10
2019-03-17T04:34:04.852Z,13.03
2019-03-17T04:37:08.177Z,10.37
2019-03-17T04:39:40.926Z,10.63
2019-03-17T04:42:30.779Z,10.13
2019-03-17T04:45:20.635Z,13.23
2019-03-17T04:48:10.608Z,9.93
2019-03-17T04:51:00.496Z,10.57
2019-03-17T04:53:50.365Z,10.87
2019-03-17T04:56:40.302Z,10.60
2019-03-17T04:59:30.101Z,10.77
2019-03-17T05:02:19.971Z,14.57
2019-03-17T05:05:10.017Z,10.13
2019-03-17T05:07:59.906Z,11.33
2019-03-17T05:10:49.756Z,10.40
2019-03-17T05:13:20.253Z,12.57
2019-03-17T05:15:51.037Z,10.73
2019-03-17T05:18:52.983Z,11.23
2019-03-17T05:21:26.006Z,10.50
2019-03-17T05:24:16.872Z,13.83
2019-03-17T05:27:06.738Z,14.83
2019-03-17T05:30:08.485Z,14.97
2019-03-17T05:32:39.164Z,16.00
2019-03-17T05:35:29.115Z,14.17
2019-03-17T05:38:19.037Z,16.00
2019-03-17T05:41:09.014Z,17.00
2019-03-17T05:43:58.955Z,17.03
2019-03-17T05:46:48.807Z,14.37
2019-03-17T05:49:57.619Z,18.93
2019-03-17T05:52:59.527Z,19.70
2019-03-17T05:55:30.566Z,27.60
2019-03-17T05:58:20.476Z,21.40
2019-03-17T06:01:10.330Z,22.40
2019-03-17T06:04:00.208Z,23.60
2019-03-17T06:06:50.059Z,22.77
2019-03-17T06:09:39.955Z,27.03
2019-03-17T06:12:41.532Z,23.50
2019-03-17T06:15:12.675Z,18.07
2019-03-17T06:18:14.485Z,19.57
2019-03-17T06:20:47.433Z,17.90
2019-03-17T06:23:37.319Z,17.47
2019-03-17T06:26:27.229Z,17.73
2019-03-17T06:29:17.111Z,16.47
2019-03-17T06:32:07.013Z,17.07
2019-03-17T06:34:56.844Z,15.93
2019-03-17T06:37:46.727Z,16.20
2019-03-17T06:40:36.595Z,19.17
2019-03-17T06:43:26.479Z,16.17
2019-03-17T06:46:16.350Z,16.30
2019-03-17T06:49:17.852Z,16.90
2019-03-17T06:52:00.921Z,20.20
2019-03-17T06:57:35.485Z,19.50
2019-03-17T07:00:25.323Z,20.73
2019-03-17T07:03:15.188Z,17.70
2019-03-17T07:05:45.635Z,17.33
2019-03-17T07:08:35.498Z,19.27
2019-03-17T07:11:25.351Z,15.43
2019-03-17T07:14:15.244Z,12.97
2019-03-17T07:17:05.083Z,14.30
2019-03-17T07:19:35.777Z,15.53
2019-03-17T07:22:25.639Z,11.83
2019-03-17T07:25:15.516Z,11.70
2019-03-17T07:28:05.360Z,10.70
2019-03-17T07:30:55.248Z,9.13
2019-03-17T07:33:45.102Z,9.00
2019-03-17T07:36:34.969Z,7.33
2019-03-17T07:42:10.638Z,7.50
2019-03-17T07:45:00.538Z,9.90
2019-03-17T07:47:50.369Z,10.63
2019-03-17T07:50:20.817Z,11.83
2019-03-17T07:53:10.698Z,12.53
2019-03-17T07:55:41.123Z,11.70
2019-03-17T07:58:30.996Z,10.20
2019-03-17T08:01:20.842Z,10.47
2019-03-17T08:04:10.690Z,11.50
2019-03-17T08:07:00.555Z,10.83
2019-03-17T08:09:50.454Z,15.30
2019-03-17T08:12:40.291Z,10.53
2019-03-17T08:15:30.216Z,10.57
2019-03-17T08:18:20.078Z,9.43
2019-03-17T08:21:09.941Z,9.63
2019-03-17T08:23:59.799Z,8.43
2019-03-17T08:26:50.165Z,8.67
2019-03-17T08:29:41.305Z,8.50
2019-03-17T08:32:31.189Z,7.70
2019-03-17T08:35:21.026Z,8.97
2019-03-17T08:38:21.249Z,7.87
2019-03-17T08:43:57.083Z,8.40
2019-03-17T08:46:47.064Z,8.37
2019-03-17T08:49:36.952Z,6.23
2019-03-17T08:52:26.839Z,6.53
2019-03-17T08:55:16.735Z,4.80
2019-03-17T08:58:06.663Z,6.37
2019-03-17T09:00:56.535Z,5.57
2019-03-17T09:03:27.064Z,4.53
2019-03-17T09:06:17.068Z,4.70
2019-03-17T09:09:08.806Z,4.27
2019-03-17T09:11:39.246Z,5.63
2019-03-17T09:14:29.100Z,6.03
2019-03-17T09:17:18.981Z,6.00
2019-03-17T09:20:09.115Z,7.00
2019-03-17T09:22:59.021Z,7.80
2019-03-17T09:25:48.904Z,7.50
2019-03-17T09:28:38.763Z,8.10
2019-03-17T09:31:28.640Z,8.03
2019-03-17T09:34:18.552Z,8.90
2019-03-17T09:36:50.958Z,8.40
2019-03-17T09:39:40.833Z,9.00
2019-03-17T09:42:30.676Z,9.67
2019-03-17T09:45:20.556Z,9.97
2019-03-17T09:48:10.430Z,9.90
2019-03-17T09:51:00.476Z,9.97
2019-03-17T09:53:50.356Z,9.33
2019-03-17T09:56:52.015Z,10.07
2019-03-17T09:59:24.308Z,10.80
2019-03-17T10:02:14.188Z,14.00
2019-03-17T10:05:04.099Z,14.83
2019-03-17T10:07:54.061Z,11.77
2019-03-17T10:10:43.923Z,14.97
2019-03-17T10:13:33.829Z,15.77
2019-03-17T10:16:23.720Z,13.57
2019-03-17T10:18:54.378Z,14.30
2019-03-17T10:21:44.583Z,15.40
2019-03-17T10:24:34.467Z,15.63
2019-03-17T10:27:36.216Z,15.97
2019-03-17T10:30:11.079Z,15.37
2019-03-17T10:32:42.584Z,16.63
2019-03-17T10:35:32.806Z,15.97
2019-03-17T10:38:22.682Z,15.73
2019-03-17T10:41:12.674Z,17.90
2019-03-17T10:44:02.503Z,13.73
2019-03-17T10:46:52.387Z,17.00
2019-03-17T10:49:42.219Z,12.27
2019-03-17T10:52:14.350Z,15.67
2019-03-17T10:55:04.216Z,13.53
2019-03-17T10:57:54.458Z,13.00
2019-03-17T11:00:44.309Z,12.10
2019-03-17T11:03:34.204Z,10.77
2019-03-17T11:06:24.078Z,11.90
2019-03-17T11:08:54.676Z,11.77
2019-03-17T11:11:44.521Z,11.67
2019-03-17T11:14:34.399Z,11.27
2019-03-17T11:17:24.253Z,11.90
2019-03-17T11:19:54.797Z,11.77
2019-03-17T11:22:44.760Z,12.30
2019-03-17T11:25:34.623Z,13.37
2019-03-17T11:28:24.483Z,12.37
2019-03-17T11:31:14.337Z,13.60
2019-03-17T11:33:44.925Z,11.23
2019-03-17T11:36:34.816Z,13.10
2019-03-17T11:39:36.861Z,12.80
2019-03-17T11:42:07.824Z,12.63
2019-03-17T11:44:57.675Z,11.60
2019-03-17T11:47:47.627Z,14.07
2019-03-17T11:50:37.481Z,11.23
2019-03-17T11:53:27.330Z,12.30
2019-03-17T11:56:17.178Z,13.37
2019-03-17T11:59:07.091Z,14.57
2019-03-17T12:01:56.931Z,12.27
2019-03-17T12:04:46.804Z,14.40
2019-03-17T12:07:36.675Z,13.33
2019-03-17T12:10:26.572Z,13.87
2019-03-17T12:12:57.178Z,17.63
2019-03-17T12:15:47.054Z,12.67
2019-03-17T12:18:36.897Z,11.37
2019-03-17T12:21:26.830Z,12.07
2019-03-17T12:24:16.680Z,11.40
2019-03-17T12:27:06.572Z,13.00
2019-03-17T12:29:56.434Z,12.50
2019-03-17T12:32:46.313Z,13.63
2019-03-17T12:35:36.178Z,13.17
2019-03-17T12:38:26.144Z,14.27
2019-03-17T12:41:16.147Z,15.93
2019-03-17T12:44:06.051Z,17.60
2019-03-17T12:46:56.013Z,16.80
2019-03-17T12:49:46.026Z,14.87
2019-03-17T12:52:35.975Z,21.10
2019-03-17T12:55:06.879Z,15.70
2019-03-17T12:57:56.812Z,15.63
2019-03-17T13:00:27.428Z,17.53
2019-03-17T13:03:17.310Z,15.93
2019-03-17T13:06:07.761Z,18.00
2019-03-17T13:08:38.234Z,17.73
2019-03-17T13:11:28.157Z,17.30
2019-03-17T13:14:18.085Z,15.63
2019-03-17T13:17:07.920Z,15.50
2019-03-17T13:19:57.835Z,16.23
2019-03-17T13:22:47.681Z,13.63
2019-03-17T13:25:37.608Z,13.10
2019-03-17T13:28:27.481Z,10.27
2019-03-17T13:31:17.352Z,12.40
2019-03-17T13:34:07.202Z,12.53
2019-03-17T13:36:57.085Z,8.23
2019-03-17T13:39:27.518Z,7.80
2019-03-17T13:42:17.467Z,7.20
2019-03-17T13:45:07.495Z,8.93
2019-03-17T13:47:57.391Z,7.37
2019-03-17T13:50:47.236Z,7.00
2019-03-17T13:53:37.156Z,6.80
2019-03-17T13:56:09.235Z,6.43
2019-03-17T13:58:59.253Z,5.87
2019-03-17T14:01:49.155Z,7.07
2019-03-17T14:04:39.007Z,7.30
2019-03-17T14:07:09.490Z,5.93
2019-03-17T14:09:59.320Z,7.57
2019-03-17T14:12:49.209Z,5.77
2019-03-17T14:15:21.322Z,6.80
2019-03-17T14:18:11.251Z,7.90
2019-03-17T14:21:01.249Z,6.70
2019-03-17T14:23:51.117Z,7.70
2019-03-17T14:26:21.560Z,10.67
2019-03-17T14:28:52.011Z,12.20
2019-03-17T14:31:41.865Z,5.23
2019-03-17T14:34:31.689Z,5.53
2019-03-17T14:37:21.587Z,4.37
2019-03-17T14:40:12.635Z,4.03
2019-03-17T14:43:02.580Z,5.20
2019-03-17T14:45:52.501Z,3.13
2019-03-17T14:48:42.364Z,4.43
2019-03-17T14:51:32.230Z,4.30
2019-03-17T14:54:22.106Z,3.87
2019-03-17T14:57:11.990Z,4.40
2019-03-17T15:00:01.877Z,3.67
2019-03-17T15:02:51.752Z,3.90
2019-03-17T15:05:41.637Z,4.23
2019-03-17T15:08:42.700Z,5.40
2019-03-17T15:11:27.570Z,7.60
2019-03-17T15:14:00.873Z,4.53
2019-03-17T15:16:51.290Z,6.20
2019-03-17T15:19:41.138Z,4.23
2019-03-17T15:22:31.009Z,5.03
2019-03-17T15:25:20.866Z,4.53
2019-03-17T15:28:10.821Z,6.57
2019-03-17T15:31:11.029Z,4.77
2019-03-17T15:33:43.836Z,6.00
2019-03-17T15:36:14.691Z,5.13
2019-03-17T15:42:08.715Z,9.13
2019-03-17T15:44:58.592Z,5.70
2019-03-17T15:47:48.627Z,10.60
2019-03-17T15:50:38.573Z,6.90
2019-03-17T15:53:28.531Z,4.90
2019-03-17T15:56:18.482Z,5.33
2019-03-17T15:58:49.262Z,7.43
2019-03-17T16:01:39.159Z,10.17
2019-03-17T16:04:29.173Z,5.73
2019-03-17T16:07:19.112Z,6.37
2019-03-17T16:09:49.593Z,6.03
2019-03-17T16:12:58.408Z,9.20
2019-03-17T16:15:48.315Z,6.20
2019-03-17T16:18:38.168Z,6.43
2019-03-17T16:21:28.041Z,5.30
2019-03-17T16:24:17.931Z,5.80
2019-03-17T16:27:07.820Z,7.57
2019-03-17T16:29:57.663Z,8.93
2019-03-17T16:32:28.276Z,7.07
2019-03-17T16:35:18.270Z,10.90
2019-03-17T16:38:08.207Z,8.20
2019-03-17T16:40:58.041Z,10.00
2019-03-17T16:43:47.925Z,8.40
2019-03-17T16:46:37.813Z,10.77
2019-03-17T16:49:27.703Z,10.40
2019-03-17T16:52:17.597Z,16.90
2019-03-17T16:54:48.200Z,11.97
2019-03-17T16:57:38.096Z,11.60
2019-03-17T17:03:30.261Z,9.40
2019-03-17T17:06:02.367Z,11.23
2019-03-17T17:08:52.277Z,7.57
2019-03-17T17:11:42.166Z,8.93
2019-03-17T17:14:32.073Z,9.67
2019-03-17T17:17:21.991Z,6.93
2019-03-17T17:20:14.479Z,6.80
2019-03-17T17:23:04.391Z,7.63
2019-03-17T17:25:54.314Z,12.20
2019-03-17T17:28:44.191Z,10.10
2019-03-17T17:31:34.126Z,11.50
2019-03-17T17:34:24.112Z,12.63
2019-03-17T17:36:54.685Z,15.63
2019-03-17T17:39:44.604Z,13.37
2019-03-17T17:42:34.477Z,13.53
2019-03-17T17:45:24.208Z,12.50
2019-03-17T17:47:54.844Z,14.20
2019-03-17T17:50:44.693Z,12.13
2019-03-17T17:53:34.615Z,13.97
2019-03-17T17:56:24.483Z,14.20
2019-03-17T17:58:54.988Z,10.40
2019-03-17T18:01:44.873Z,11.77
2019-03-17T18:04:35.134Z,11.73
2019-03-17T18:07:24.969Z,17.67
2019-03-17T18:10:14.958Z,22.63
2019-03-17T18:12:45.605Z,15.23
2019-03-17T18:15:35.596Z,11.07
2019-03-17T18:18:25.538Z,13.30
2019-03-17T18:21:15.428Z,13.60
2019-03-17T18:24:05.352Z,12.47
2019-03-17T18:26:55.357Z,10.63
2019-03-17T18:29:45.237Z,7.00
2019-03-17T18:32:15.847Z,9.20
2019-03-17T18:35:06.134Z,9.30
2019-03-17T18:37:56.075Z,17.10
2019-03-17T18:40:45.936Z,7.80
2019-03-17T18:43:35.850Z,10.10
2019-03-17T18:46:25.743Z,10.33
2019-03-17T18:49:15.650Z,15.90
2019-03-17T18:52:05.567Z,16.03
2019-03-17T18:54:55.522Z,15.90
2019-03-17T18:57:45.416Z,19.77
2019-03-17T19:00:17.138Z,9.23
2019-03-17T19:03:07.074Z,12.07
2019-03-17T19:05:57.038Z,19.80
2019-03-17T19:08:46.914Z,26.07
2019-03-17T19:11:36.841Z,18.90
2019-03-17T19:14:45.731Z,17.87
2019-03-17T19:17:35.668Z,21.70
2019-03-17T19:20:25.606Z,28.00
2019-03-17T19:23:15.461Z,17.33
2019-03-17T19:26:05.518Z,20.60
2019-03-17T19:28:55.416Z,22.53
2019-03-17T19:31:45.348Z,23.67
2019-03-17T19:34:35.277Z,31.60
2019-03-17T19:37:25.170Z,25.97
2019-03-17T19:40:15.472Z,24.83
2019-03-17T19:42:57.985Z,23.40
2019-03-17T19:45:24.661Z,24.23
2019-03-17T19:47:55.149Z,24.57
2019-03-17T19:50:45.191Z,21.23
2019-03-17T19:53:35.094Z,17.50
2019-03-17T19:56:25.049Z,14.63
2019-03-17T19:59:14.938Z,18.70
2019-03-17T20:02:04.898Z,20.13
2019-03-17T20:04:54.787Z,16.03
2019-03-17T20:07:44.839Z,17.37
2019-03-17T20:10:34.669Z,20.10
2019-03-17T20:13:24.546Z,19.33
2019-03-17T20:15:55.054Z,20.80
2019-03-17T20:21:47.702Z,21.57
2019-03-17T20:24:37.578Z,24.33
2019-03-17T20:27:27.483Z,23.20
2019-03-17T20:30:17.619Z,23.03
2019-03-17T20:33:07.513Z,24.65
2019-03-17T20:35:57.395Z,25.40
2019-03-17T20:38:47.302Z,24.20
2019-03-17T20:41:37.177Z,21.47
2019-03-17T20:44:27.106Z,30.27
2019-03-17T20:47:36.019Z,22.27
2019-03-17T20:50:26.020Z,29.70
2019-03-17T20:53:16.084Z,28.00
2019-03-17T20:56:05.993Z,24.97
2019-03-17T20:58:55.928Z,28.10
2019-03-17T21:01:45.814Z,29.40
2019-03-17T21:04:35.698Z,21.23
2019-03-17T21:07:25.610Z,24.43
2019-03-17T21:10:15.587Z,19.50
2019-03-17T21:13:05.516Z,19.47
2019-03-17T21:15:55.359Z,18.70
2019-03-17T21:18:45.291Z,13.27
2019-03-17T21:21:35.224Z,13.60
2019-03-17T21:24:25.155Z,11.53
2019-03-17T21:26:55.602Z,9.07
2019-03-17T21:29:45.573Z,7.80
2019-03-17T21:32:35.554Z,7.57
2019-03-17T21:35:25.433Z,10.80
2019-03-17T21:38:15.356Z,6.17
2019-03-17T21:41:07.242Z,6.53
2019-03-17T21:43:58.954Z,4.83
2019-03-17T21:46:31.637Z,4.63
2019-03-17T21:49:21.541Z,4.53
2019-03-17T21:52:11.478Z,7.83
2019-03-17T21:55:01.469Z,5.87
2019-03-17T21:57:51.393Z,4.43
2019-03-17T22:00:41.282Z,4.80
2019-03-17T22:03:31.157Z,5.60
2019-03-17T22:06:01.793Z,5.93
2019-03-17T22:08:51.743Z,5.83
2019-03-17T22:11:41.675Z,4.00
2019-03-17T22:14:31.610Z,7.73
2019-03-17T22:17:21.522Z,4.10
2019-03-17T22:20:11.465Z,2.17
2019-03-17T22:23:01.346Z,1.70
2019-03-17T22:25:51.210Z,2.83
2019-03-17T22:28:21.851Z,2.47
2019-03-17T22:31:11.740Z,3.33
2019-03-17T22:34:01.690Z,1.70
2019-03-17T22:36:51.589Z,4.97
2019-03-17T22:39:41.471Z,2.60
2019-03-17T22:42:31.379Z,2.00
2019-03-17T22:45:21.290Z,2.20
2019-03-17T22:47:51.946Z,1.40
2019-03-17T22:50:41.833Z,1.57
2019-03-17T22:53:31.725Z,2.40
2019-03-17T22:56:21.614Z,1.10
2019-03-17T22:58:52.122Z,1.67
2019-03-17T23:01:41.977Z,1.00
2019-03-17T23:04:31.865Z,1.00
2019-03-17T23:07:03.981Z,1.37
2019-03-17T23:09:34.467Z,0.87
2019-03-17T23:12:24.349Z,0.70
2019-03-17T23:14:54.942Z,0.73
2019-03-17T23:17:44.807Z,0.70
2019-03-17T23:20:34.709Z,1.53
2019-03-17T23:23:24.570Z,0.83
2019-03-17T23:25:55.213Z,0.90
2019-03-17T23:28:45.082Z,0.70
2019-03-17T23:31:34.963Z,1.07
2019-03-17T23:34:24.768Z,1.23
2019-03-17T23:36:55.316Z,1.00
2019-03-17T23:39:45.177Z,0.80
2019-03-17T23:42:34.999Z,0.87
2019-03-17T23:45:24.827Z,0.90
2019-03-17T23:47:55.354Z,1.00
2019-03-17T23:50:45.177Z,1.33
2019-03-17T23:53:35.105Z,1.10
2019-03-17T23:56:24.936Z,0.97
2019-03-17T23:58:55.462Z,2.17
